Time;durP1;ratioP1;P1;durP2;ratioP2;P2;SDS_P1;SDS_P2;PMS_P1;PMS_P2;Temp;Humidity;BMP_temperature;BMP_pressure;BME280_temperature;BME280_humidity;BME280_pressure;Samples;Min_cycle;Max_cycle;Signal;HPM_P1;HPM_P2
2023/06/07 00:00:27;;;;;;;12.20;10.90;;;;;;;15.69;90.15;96711.64;109242;1270;24210;-85
2023/06/07 00:03:19;;;;;;;13.20;11.00;;;;;;;15.65;90.61;96711.44;109332;1270;38033;-85
2023/06/07 00:05:50;;;;;;;11.80;10.00;;;;;;;15.63;90.82;96711.27;109371;1270;24237;-85
2023/06/07 00:08:23;;;;;;;10.30;8.20;;;;;;;15.61;90.99;96709.39;109428;1267;22509;-85
2023/06/07 00:10:56;;;;;;;10.70;9.10;;;;;;;15.62;91.06;96708.79;109623;1266;25400;-85
2023/06/07 00:13:28;;;;;;;8.90;7.00;;;;;;;15.64;91.24;96705.65;109591;1269;22522;-85
2023/06/07 00:15:59;;;;;;;7.50;6.70;;;;;;;15.67;91.30;96705.06;109617;1262;22517;-85
2023/06/07 00:18:30;;;;;;;10.70;9.40;;;;;;;15.72;91.25;96707.61;109556;1266;25409;-85
2023/06/07 00:21:04;;;;;;;11.50;9.30;;;;;;;15.76;91.21;96702.91;109536;1269;69804;-85
2023/06/07 00:23:35;;;;;;;10.40;8.90;;;;;;;15.76;91.00;96700.49;109561;1269;22746;-85
2023/06/07 00:26:07;;;;;;;10.10;8.20;;;;;;;15.75;90.89;96699.35;109563;1263;26421;-85
2023/06/07 00:28:38;;;;;;;9.60;7.10;;;;;;;15.69;90.83;96702.83;109564;1269;22551;-85
2023/06/07 00:31:09;;;;;;;9.10;7.00;;;;;;;15.66;90.91;96704.15;109561;1263;57925;-85
2023/06/07 00:33:41;;;;;;;11.80;8.50;;;;;;;15.66;90.93;96702.63;109554;1266;25394;-85
2023/06/07 00:36:12;;;;;;;11.40;8.60;;;;;;;15.68;91.14;96695.48;109592;1263;22522;-85
2023/06/07 00:38:43;;;;;;;11.20;8.60;;;;;;;15.65;90.78;96699.29;109530;1263;22517;-85
2023/06/07 00:41:17;;;;;;;12.60;7.90;;;;;;;15.54;90.76;96698.39;109516;1269;60506;-85
2023/06/07 00:43:48;;;;;;;10.90;8.00;;;;;;;15.48;90.83;96694.73;109553;1265;23870;-85
2023/06/07 00:46:21;;;;;;;9.10;7.20;;;;;;;15.49;91.12;96693.75;109579;1263;22584;-85
2023/06/07 00:48:53;;;;;;;11.90;8.80;;;;;;;15.52;91.21;96693.89;109614;1263;22508;-85
2023/06/07 00:51:25;;;;;;;9.90;8.00;;;;;;;15.54;91.22;96694.74;109553;1262;43899;-86
2023/06/07 00:53:59;;;;;;;10.10;7.70;;;;;;;15.47;91.05;96692.73;109590;1269;24221;-85
2023/06/07 00:56:31;;;;;;;8.70;7.80;;;;;;;15.36;91.28;96689.71;109521;1269;23694;-85
2023/06/07 00:59:03;;;;;;;10.00;7.90;;;;;;;15.25;91.56;96687.21;109531;1264;25867;-85
2023/06/07 01:01:34;;;;;;;8.80;7.10;;;;;;;15.21;92.06;96685.14;109551;1266;44953;-85
2023/06/07 01:04:06;;;;;;;12.10;7.80;;;;;;;15.18;92.20;96682.95;109578;1261;22559;-85
2023/06/07 01:06:38;;;;;;;8.50;6.50;;;;;;;15.17;92.45;96682.34;109536;1269;22580;-85
2023/06/07 01:09:13;;;;;;;9.60;6.50;;;;;;;15.17;92.55;96684.84;109569;1269;25421;-85
2023/06/07 01:11:48;;;;;;;8.90;6.30;;;;;;;15.20;92.65;96682.75;109511;1269;68302;-85
2023/06/07 01:14:22;;;;;;;7.50;6.50;;;;;;;15.24;92.69;96679.29;109538;1269;25431;-85
2023/06/07 01:16:56;;;;;;;7.60;6.10;;;;;;;15.27;92.48;96677.92;109616;1266;22501;-85
2023/06/07 01:19:30;;;;;;;6.50;5.80;;;;;;;15.32;92.46;96676.77;109613;1263;22533;-85
2023/06/07 01:22:04;;;;;;;6.60;5.80;;;;;;;15.34;92.15;96677.80;109525;1263;50210;-85
2023/06/07 01:24:37;;;;;;;7.10;6.30;;;;;;;15.34;91.91;96677.00;109554;1263;22534;-85
2023/06/07 01:27:10;;;;;;;9.10;6.60;;;;;;;15.32;91.79;96671.70;109616;1269;25456;-85
2023/06/07 01:29:42;;;;;;;9.50;7.40;;;;;;;15.20;91.56;96670.84;109572;1263;22995;-85
2023/06/07 01:32:14;;;;;;;7.80;6.40;;;;;;;15.07;91.69;96673.25;109547;1266;47977;-85
2023/06/07 01:34:49;;;;;;;7.70;6.90;;;;;;;15.01;91.99;96670.67;109600;1269;22557;-85
2023/06/07 01:37:21;;;;;;;8.00;6.70;;;;;;;15.05;92.32;96667.89;109527;1269;22612;-85
2023/06/07 01:39:54;;;;;;;8.70;6.70;;;;;;;15.10;92.15;96670.77;109566;1263;23269;-85
2023/06/07 01:42:25;;;;;;;7.40;6.50;;;;;;;15.13;92.14;96674.05;109525;1256;72799;-85
2023/06/07 01:44:59;;;;;;;7.40;6.10;;;;;;;15.17;92.13;96677.73;109623;1269;22550;-85
2023/06/07 01:47:31;;;;;;;9.20;6.30;;;;;;;15.22;92.09;96676.89;109601;1269;22548;-86
2023/06/07 01:50:02;;;;;;;9.60;6.50;;;;;;;15.25;91.88;96676.37;109563;1269;22501;-85
2023/06/07 01:52:33;;;;;;;6.80;5.80;;;;;;;15.27;91.80;96678.45;109497;1266;47349;-85
2023/06/07 01:55:07;;;;;;;6.90;5.50;;;;;;;15.29;91.77;96680.38;109604;1266;23280;-85
2023/06/07 01:57:47;;;;;;;6.40;5.50;;;;;;;15.28;91.67;96677.89;109610;1263;22646;-85
2023/06/07 02:00:20;;;;;;;;;;;;;;;15.27;91.71;96675.16;109591;1269;22592;-85
2023/06/07 02:02:57;;;;;;;7.20;5.30;;;;;;;15.27;91.72;96675.53;109557;1269;33704;-85
2023/06/07 02:05:33;;;;;;;8.40;6.10;;;;;;;15.28;91.74;96673.84;109611;1269;24923;-85
2023/06/07 02:08:14;;;;;;;7.10;6.40;;;;;;;15.30;91.73;96675.82;109577;1263;22732;-85
2023/06/07 02:10:49;;;;;;;6.00;5.40;;;;;;;15.33;91.83;96678.20;109582;1262;22511;-85
2023/06/07 02:13:21;;;;;;;6.40;5.80;;;;;;;15.31;91.83;96678.41;109503;1266;62017;-85
2023/06/07 02:15:53;;;;;;;6.90;5.40;;;;;;;15.26;91.56;96676.82;109551;1269;22526;-85
2023/06/07 02:18:25;;;;;;;6.80;5.90;;;;;;;15.20;91.69;96679.98;109566;1266;22553;-85
2023/06/07 02:20:57;;;;;;;9.10;6.00;;;;;;;15.11;91.62;96675.71;109543;1263;22505;-85
2023/06/07 02:23:28;;;;;;;11.10;8.10;;;;;;;15.03;92.07;96673.13;109585;1247;22514;-85
2023/06/07 02:26:00;;;;;;;8.40;6.90;;;;;;;15.00;92.31;96679.52;109545;1263;23014;-85
2023/06/07 02:28:32;;;;;;;6.90;6.10;;;;;;;15.01;92.77;96675.63;109574;1266;22499;-85
2023/06/07 02:31:04;;;;;;;6.40;5.60;;;;;;;15.06;93.19;96675.25;109553;1263;53074;-85
2023/06/07 02:33:35;;;;;;;7.40;6.40;;;;;;;15.07;93.32;96675.11;109561;1266;24292;-85
2023/06/07 02:36:07;;;;;;;7.80;6.60;;;;;;;15.07;93.43;96673.20;109569;1261;22520;-85
2023/06/07 02:38:38;;;;;;;6.60;5.80;;;;;;;15.07;93.70;96672.67;109525;1269;24205;-85
2023/06/07 02:41:09;;;;;;;6.60;5.70;;;;;;;15.06;93.86;96670.86;109470;1269;47741;-85
2023/06/07 02:43:40;;;;;;;8.30;6.20;;;;;;;15.07;94.05;96669.83;109614;1269;23380;-85
2023/06/07 02:46:12;;;;;;;9.50;7.20;;;;;;;15.14;94.16;96674.89;109604;1269;22515;-85
2023/06/07 02:48:43;;;;;;;8.60;7.00;;;;;;;15.19;94.03;96673.75;109605;1263;22515;-85
2023/06/07 02:51:16;;;;;;;7.30;6.50;;;;;;;15.20;93.87;96671.00;109565;1269;39315;-85
2023/06/07 02:53:49;;;;;;;7.90;6.30;;;;;;;15.18;93.92;96671.67;109564;1266;22507;-85
2023/06/07 02:56:20;;;;;;;7.30;6.30;;;;;;;15.17;93.98;96677.33;109564;1269;24201;-85
2023/06/07 02:58:51;;;;;;;9.20;6.90;;;;;;;15.20;94.13;96675.71;109527;1262;22530;-85
2023/06/07 03:01:27;;;;;;;8.70;6.80;;;;;;;15.25;94.34;96682.09;109466;1269;48704;-85
2023/06/07 03:03:58;;;;;;;8.50;7.10;;;;;;;15.29;94.29;96678.67;109581;1266;22619;-85
2023/06/07 03:06:29;;;;;;;7.70;6.30;;;;;;;15.32;94.23;96679.98;109547;1269;25404;-85
2023/06/07 03:09:01;;;;;;;7.60;6.70;;;;;;;15.32;93.95;96677.09;109555;1269;22533;-85
2023/06/07 03:11:34;;;;;;;8.30;6.40;;;;;;;15.32;93.93;96677.90;109296;1269;43347;-85
2023/06/07 03:14:05;;;;;;;8.00;7.00;;;;;;;15.24;93.81;96677.41;109596;1266;24847;-85
2023/06/07 03:16:37;;;;;;;7.70;6.80;;;;;;;15.14;93.94;96674.73;109571;1269;22513;-85
2023/06/07 03:19:08;;;;;;;8.00;7.20;;;;;;;15.06;94.31;96676.17;109553;1266;22522;-85
2023/06/07 03:21:40;;;;;;;9.10;7.30;;;;;;;15.03;94.83;96676.48;109492;1269;79704;-85
2023/06/07 03:24:12;;;;;;;8.00;7.10;;;;;;;15.05;95.25;96676.86;109598;1266;25406;-85
2023/06/07 03:26:43;;;;;;;8.80;6.60;;;;;;;15.08;95.50;96675.52;109587;1269;22508;-85
2023/06/07 03:29:15;;;;;;;8.70;7.30;;;;;;;15.15;95.62;96679.29;109546;1263;22495;-85
2023/06/07 03:31:46;;;;;;;7.40;6.60;;;;;;;15.22;95.69;96683.30;109494;1269;67333;-85
2023/06/07 03:34:18;;;;;;;8.20;6.90;;;;;;;15.26;95.66;96681.75;109579;1269;22573;-85
2023/06/07 03:36:49;;;;;;;7.60;6.60;;;;;;;15.28;95.52;96682.70;109585;1266;22511;-84
2023/06/07 03:39:21;;;;;;;9.00;7.90;;;;;;;15.32;95.56;96688.74;109576;1268;22512;-85
2023/06/07 03:41:52;;;;;;;8.00;7.00;;;;;;;15.35;95.56;96688.34;109521;1259;51238;-85
2023/06/07 03:44:24;;;;;;;8.40;7.20;;;;;;;15.37;95.42;96693.27;109534;1267;23794;-85
2023/06/07 03:46:56;;;;;;;9.30;7.00;;;;;;;15.38;95.29;96693.04;109577;1269;22512;-85
2023/06/07 03:49:27;;;;;;;7.40;6.60;;;;;;;15.37;95.23;96693.27;109578;1269;25274;-85
2023/06/07 03:51:59;;;;;;;8.30;7.50;;;;;;;15.38;95.23;96697.47;109516;1262;59817;-85
2023/06/07 03:54:30;;;;;;;8.20;7.40;;;;;;;15.39;95.35;96692.95;109573;1263;25282;-85
2023/06/07 03:57:02;;;;;;;7.80;7.00;;;;;;;15.41;95.40;96691.91;109538;1269;25139;-85
2023/06/07 03:59:33;;;;;;;8.20;7.00;;;;;;;15.43;95.40;96690.79;109585;1263;25531;-85
2023/06/07 04:02:05;;;;;;;8.60;7.80;;;;;;;15.46;95.51;96691.73;109323;1269;37743;-85
2023/06/07 04:04:36;;;;;;;8.30;7.50;;;;;;;15.49;95.46;96691.42;109493;1267;25848;-85
2023/06/07 04:07:08;;;;;;;8.20;7.40;;;;;;;15.51;95.49;96691.53;109531;1267;22574;-85
2023/06/07 04:09:41;;;;;;;10.70;7.60;;;;;;;15.54;95.54;96692.14;109583;1267;22646;-85
2023/06/07 04:12:12;;;;;;;8.50;7.40;;;;;;;15.56;95.62;96693.16;109511;1263;53166;-85
2023/06/07 04:14:44;;;;;;;9.80;7.50;;;;;;;15.57;95.57;96696.10;109580;1266;22514;-85
2023/06/07 04:17:15;;;;;;;8.30;7.00;;;;;;;15.57;95.50;96698.25;109612;1269;22980;-85
2023/06/07 04:19:48;;;;;;;9.30;7.50;;;;;;;15.58;95.62;96698.54;109577;1263;22539;-85
2023/06/07 04:22:19;;;;;;;9.40;7.30;;;;;;;15.59;95.55;96699.21;109525;1266;55490;-85
2023/06/07 04:24:51;;;;;;;10.70;7.90;;;;;;;15.62;95.47;96700.40;109604;1250;22613;-85
2023/06/07 04:27:23;;;;;;;9.30;8.40;;;;;;;15.64;95.55;96702.59;109577;1263;25268;-86
2023/06/07 04:30:01;;;;;;;9.90;8.00;;;;;;;15.61;95.48;96700.46;109569;1269;22533;-85
2023/06/07 04:32:33;;;;;;;7.80;7.00;;;;;;;15.57;95.48;96700.23;109540;1262;68295;-85
2023/06/07 04:35:05;;;;;;;8.80;7.80;;;;;;;15.57;95.73;96699.95;109595;1269;22564;-85
2023/06/07 04:37:39;;;;;;;8.80;7.80;;;;;;;15.59;95.85;96698.95;109611;1263;22597;-85
2023/06/07 04:40:13;;;;;;;8.10;7.30;;;;;;;15.64;96.07;96698.48;109584;1266;23253;-85
2023/06/07 04:42:55;;;;;;;9.00;8.10;;;;;;;15.69;96.26;96695.95;109549;1268;31917;-85
2023/06/07 04:45:31;;;;;;;10.20;8.10;;;;;;;15.73;96.37;96697.36;109544;1269;22517;-85
2023/06/07 04:48:02;;;;;;;10.30;8.70;;;;;;;15.77;96.36;96697.92;109570;1263;22568;-85
2023/06/07 04:50:34;;;;;;;9.60;8.40;;;;;;;15.79;96.34;96703.54;109554;1263;24917;-85
2023/06/07 04:53:06;;;;;;;9.20;8.10;;;;;;;15.83;96.41;96701.59;109595;1269;55512;-85
2023/06/07 04:55:41;;;;;;;10.40;8.50;;;;;;;15.85;96.46;96698.55;109580;1265;22505;-85
2023/06/07 04:58:14;;;;;;;10.10;9.00;;;;;;;15.89;96.60;96701.26;109612;1269;22529;-85
2023/06/07 05:00:47;;;;;;;10.20;9.20;;;;;;;15.91;96.59;96702.16;109564;1262;23842;-85
2023/06/07 05:03:21;;;;;;;10.50;9.30;;;;;;;15.96;96.74;96699.21;109551;1266;53262;-85
2023/06/07 05:05:54;;;;;;;11.40;9.10;;;;;;;16.00;96.77;96698.52;109570;1266;22515;-85
2023/06/07 05:08:26;;;;;;;10.60;9.40;;;;;;;16.04;96.66;96697.56;109582;1269;22529;-86
2023/06/07 05:10:58;;;;;;;10.10;9.00;;;;;;;16.08;96.52;96696.30;109547;1262;23530;-85
2023/06/07 05:13:30;;;;;;;9.60;8.70;;;;;;;16.11;96.51;96698.13;109555;1266;25417;-85
2023/06/07 05:16:02;;;;;;;10.00;8.90;;;;;;;16.14;96.38;96697.93;109544;1267;22510;-86
2023/06/07 05:18:35;;;;;;;11.40;8.30;;;;;;;16.17;96.46;96701.42;109574;1262;22518;-85
2023/06/07 05:21:07;;;;;;;11.10;8.80;;;;;;;16.19;96.25;96700.64;109528;1263;50311;-85
2023/06/07 05:23:38;;;;;;;11.10;8.00;;;;;;;16.22;96.15;96704.45;109599;1269;22501;-85
2023/06/07 05:26:10;;;;;;;10.20;8.60;;;;;;;16.25;96.03;96705.23;109599;1262;23730;-85
2023/06/07 05:28:41;;;;;;;12.10;8.90;;;;;;;16.28;96.13;96701.93;109575;1266;22531;-85
2023/06/07 05:31:13;;;;;;;9.40;8.50;;;;;;;16.31;96.21;96702.04;109519;1263;42904;-85
2023/06/07 05:33:44;;;;;;;9.80;8.80;;;;;;;16.37;96.49;96700.29;109586;1264;22649;-85
2023/06/07 05:36:16;;;;;;;10.40;9.30;;;;;;;16.43;96.45;96701.01;109609;1263;26121;-85
2023/06/07 05:38:49;;;;;;;9.50;8.60;;;;;;;16.46;96.36;96705.67;109585;1269;22513;-86
2023/06/07 05:41:21;;;;;;;10.10;8.70;;;;;;;16.50;96.33;96706.54;109486;1263;104521;-86
2023/06/07 05:43:52;;;;;;;9.50;8.60;;;;;;;16.56;96.33;96707.13;109592;1263;22505;-85
2023/06/07 05:46:23;;;;;;;9.70;8.70;;;;;;;16.62;96.26;96710.08;109567;1269;22575;-85
2023/06/07 05:48:55;;;;;;;9.10;8.20;;;;;;;16.67;96.23;96712.61;109629;1269;24171;-86
2023/06/07 05:51:26;;;;;;;9.60;8.60;;;;;;;16.70;96.02;96711.14;108205;1266;1823312;-86
2023/06/07 05:53:57;;;;;;;10.10;7.90;;;;;;;16.71;95.84;96714.63;109541;1269;22514;-85
2023/06/07 05:56:29;;;;;;;8.50;7.60;;;;;;;16.70;95.39;96712.52;109568;1263;22549;-85
2023/06/07 05:59:01;;;;;;;8.90;8.00;;;;;;;16.70;95.39;96716.70;109548;1269;22515;-85
2023/06/07 06:01:34;;;;;;;9.20;8.30;;;;;;;16.72;95.39;96717.78;109555;1262;68670;-86
2023/06/07 06:04:09;;;;;;;8.80;8.00;;;;;;;16.71;95.13;96717.84;109557;1269;23688;-86
2023/06/07 06:06:41;;;;;;;9.50;8.00;;;;;;;16.70;95.09;96716.33;109605;1269;24314;-86
2023/06/07 06:09:12;;;;;;;8.70;7.50;;;;;;;16.73;95.46;96716.61;109597;1263;23487;-85
2023/06/07 06:11:44;;;;;;;9.40;8.20;;;;;;;16.78;95.66;96718.70;109491;1263;64901;-86
2023/06/07 06:14:16;;;;;;;8.40;7.50;;;;;;;16.81;95.29;96719.30;109554;1269;22580;-86
2023/06/07 06:16:47;;;;;;;8.40;7.50;;;;;;;16.82;95.27;96721.60;109596;1269;24020;-86
2023/06/07 06:19:19;;;;;;;9.90;8.50;;;;;;;16.85;95.31;96719.98;109570;1267;22501;-86
2023/06/07 06:21:50;;;;;;;8.80;8.00;;;;;;;16.86;94.96;96719.19;109554;1263;49567;-86
2023/06/07 06:24:22;;;;;;;8.60;7.60;;;;;;;16.87;94.91;96715.70;109494;1263;23736;-85
2023/06/07 06:26:53;;;;;;;8.40;7.50;;;;;;;16.90;94.97;96718.65;109600;1269;22505;-85
2023/06/07 06:29:25;;;;;;;9.10;8.20;;;;;;;16.94;95.01;96714.20;109583;1266;22579;-85
2023/06/07 06:31:58;;;;;;;9.10;8.20;;;;;;;17.00;95.08;96715.82;109549;1269;69891;-86
2023/06/07 06:34:32;;;;;;;9.30;8.00;;;;;;;17.04;95.16;96715.61;109604;1269;22528;-86
2023/06/07 06:37:04;;;;;;;7.90;7.10;;;;;;;17.09;95.13;96716.45;109589;1269;25268;-85
2023/06/07 06:39:36;;;;;;;8.70;7.70;;;;;;;17.13;94.98;96716.46;109545;1267;22566;-86
2023/06/07 06:42:08;;;;;;;8.40;7.30;;;;;;;17.16;94.94;96719.30;109520;1269;58362;-85
2023/06/07 06:44:40;;;;;;;8.10;6.90;;;;;;;17.17;94.58;96718.96;109587;1263;22514;-86
2023/06/07 06:47:11;;;;;;;7.60;6.90;;;;;;;17.20;94.66;96718.93;109578;1269;22527;-86
2023/06/07 06:49:46;;;;;;;7.90;7.10;;;;;;;17.26;94.81;96717.23;109617;1263;22527;-85
2023/06/07 06:52:18;;;;;;;9.30;6.90;;;;;;;17.32;94.90;96714.80;109516;1269;43172;-86
2023/06/07 06:54:49;;;;;;;8.40;7.40;;;;;;;17.40;95.11;96712.77;109592;1269;22539;-86
2023/06/07 06:57:21;;;;;;;8.60;7.70;;;;;;;17.46;94.80;96711.13;109593;1269;22491;-86
2023/06/07 06:59:53;;;;;;;7.60;6.90;;;;;;;17.49;94.59;96710.95;109477;1269;22570;-85
2023/06/07 07:02:24;;;;;;;7.70;6.70;;;;;;;17.54;94.44;96708.75;109474;1265;63186;-85
2023/06/07 07:04:57;;;;;;;7.80;7.00;;;;;;;17.56;94.10;96710.67;109617;1269;25237;-86
2023/06/07 07:07:29;;;;;;;7.00;6.30;;;;;;;17.55;93.83;96713.33;109563;1261;23836;-86
2023/06/07 07:10:01;;;;;;;9.20;6.80;;;;;;;17.56;93.87;96712.38;109556;1266;22516;-86
2023/06/07 07:12:33;;;;;;;7.10;6.40;;;;;;;17.59;93.83;96713.93;109502;1263;95383;-86
2023/06/07 07:15:05;;;;;;;7.20;6.50;;;;;;;17.61;93.71;96718.62;109585;1263;22518;-86
2023/06/07 07:17:41;;;;;;;7.20;6.10;;;;;;;17.60;93.60;96717.92;109563;1269;22555;-86
2023/06/07 07:20:13;;;;;;;8.40;6.70;;;;;;;17.62;93.74;96719.14;109552;1268;22508;-86
2023/06/07 07:22:46;;;;;;;7.60;6.50;;;;;;;17.64;93.68;96721.00;109502;1263;85357;-86
2023/06/07 07:25:18;;;;;;;7.10;6.40;;;;;;;17.66;93.85;96722.30;109548;1251;22528;-86
2023/06/07 07:27:50;;;;;;;7.40;6.60;;;;;;;17.68;93.74;96723.65;109590;1262;23733;-86
2023/06/07 07:30:21;;;;;;;8.80;6.30;;;;;;;17.70;93.64;96724.47;109583;1269;23780;-86
2023/06/07 07:32:55;;;;;;;9.50;6.20;;;;;;;17.71;93.63;96724.08;109540;1263;49888;-86
2023/06/07 07:35:26;;;;;;;7.20;6.50;;;;;;;17.74;93.65;96726.17;109552;1269;22518;-86
2023/06/07 07:38:00;;;;;;;7.70;6.90;;;;;;;17.77;93.47;96725.21;109505;1262;23204;-86
2023/06/07 07:40:32;;;;;;;8.60;7.10;;;;;;;17.77;93.47;96731.21;109548;1246;22563;-86
2023/06/07 07:43:03;;;;;;;8.00;6.90;;;;;;;17.79;93.49;96730.44;109507;1262;89006;-86
2023/06/07 07:45:34;;;;;;;7.80;7.00;;;;;;;17.84;93.55;96726.48;109555;1262;22501;-86
2023/06/07 07:48:06;;;;;;;8.80;7.20;;;;;;;17.88;93.56;96724.56;109611;1269;22513;-86
2023/06/07 07:50:40;;;;;;;9.40;7.70;;;;;;;17.92;93.56;96728.34;109541;1269;24129;-86
2023/06/07 07:53:11;;;;;;;11.30;8.00;;;;;;;17.95;93.36;96730.40;109470;1266;94566;-86
2023/06/07 07:55:43;;;;;;;8.90;8.00;;;;;;;17.96;93.01;96732.50;109509;1269;22557;-86
2023/06/07 07:58:14;;;;;;;8.20;7.40;;;;;;;17.97;93.15;96731.56;109575;1269;22558;-86
2023/06/07 08:00:46;;;;;;;6.90;6.10;;;;;;;17.99;93.10;96734.23;109556;1267;25424;-86
2023/06/07 08:03:17;;;;;;;6.10;5.50;;;;;;;17.97;92.33;96736.59;109566;1269;54875;-86
2023/06/07 08:05:49;;;;;;;6.90;6.20;;;;;;;17.93;92.19;96733.75;109557;1269;26418;-86
2023/06/07 08:08:21;;;;;;;9.80;8.00;;;;;;;17.93;92.33;96734.23;109547;1269;22532;-86
2023/06/07 08:10:52;;;;;;;8.80;7.10;;;;;;;17.97;92.63;96733.00;109595;1269;25274;-86
2023/06/07 08:13:24;;;;;;;6.70;6.00;;;;;;;18.03;92.97;96735.08;109559;1269;37693;-86
2023/06/07 08:15:56;;;;;;;5.90;5.10;;;;;;;18.09;92.89;96735.86;109554;1260;22559;-86
2023/06/07 08:18:27;;;;;;;7.30;5.20;;;;;;;18.14;92.53;96741.26;109380;1269;203572;-86
2023/06/07 08:20:59;;;;;;;6.40;5.10;;;;;;;18.20;92.80;96739.35;109554;1266;22547;-86
2023/06/07 08:23:32;;;;;;;6.30;4.90;;;;;;;18.24;92.39;96742.26;109593;1263;22565;-86
2023/06/07 08:26:05;;;;;;;5.80;4.90;;;;;;;18.28;91.99;96741.79;109606;1260;22516;-86
2023/06/07 08:28:37;;;;;;;6.60;4.50;;;;;;;18.29;91.55;96740.39;109602;1269;22500;-86
2023/06/07 08:31:10;;;;;;;5.50;4.40;;;;;;;18.30;91.23;96741.91;109500;1269;86119;-86
2023/06/07 08:33:41;;;;;;;6.40;4.90;;;;;;;18.29;90.74;96739.48;109576;1269;24238;-86
2023/06/07 08:36:14;;;;;;;6.30;4.70;;;;;;;18.26;90.46;96736.84;109567;1267;25944;-87
2023/06/07 08:38:46;;;;;;;6.50;5.40;;;;;;;18.29;90.73;96736.02;109544;1269;23739;-86
2023/06/07 08:41:17;;;;;;;5.30;4.80;;;;;;;18.34;91.20;96735.77;109499;1263;77228;-86
2023/06/07 08:43:49;;;;;;;4.50;3.80;;;;;;;18.44;91.23;96734.98;109603;1269;22488;-86
2023/06/07 08:46:21;;;;;;;3.30;3.00;;;;;;;18.46;90.32;96740.54;109568;1266;22548;-86
2023/06/07 08:48:55;;;;;;;3.90;3.40;;;;;;;18.44;89.50;96739.53;109550;1263;22998;-86
2023/06/07 08:51:28;;;;;;;6.00;3.20;;;;;;;18.38;88.92;96737.79;109568;1246;63469;-87
2023/06/07 08:54:04;;;;;;;3.90;3.50;;;;;;;18.36;88.93;96736.83;109534;1269;22537;-86
2023/06/07 08:56:36;;;;;;;3.90;3.50;;;;;;;18.38;89.03;96734.22;109595;1263;22590;-86
2023/06/07 08:59:08;;;;;;;4.00;3.40;;;;;;;18.44;88.76;96733.27;109549;1262;22521;-86
2023/06/07 09:01:40;;;;;;;4.00;3.00;;;;;;;18.50;89.13;96737.12;109479;1269;103069;-86
2023/06/07 09:04:13;;;;;;;3.60;2.60;;;;;;;18.52;88.36;96736.98;109526;1269;22511;-86
2023/06/07 09:06:44;;;;;;;4.40;2.90;;;;;;;18.57;88.62;96734.64;109554;1264;22543;-86
2023/06/07 09:09:16;;;;;;;2.70;2.50;;;;;;;18.66;88.57;96734.58;109514;1267;22985;-86
2023/06/07 09:11:53;;;;;;;3.50;2.60;;;;;;;18.73;88.06;96736.20;109551;1267;39792;-86
2023/06/07 09:14:26;;;;;;;2.90;2.50;;;;;;;18.80;87.77;96739.59;109572;1263;22543;-86
2023/06/07 09:16:58;;;;;;;2.60;2.30;;;;;;;18.85;87.32;96742.02;109554;1269;22599;-86
2023/06/07 09:19:40;;;;;;;2.90;2.50;;;;;;;18.92;87.14;96737.13;109600;1269;22501;-86
2023/06/07 09:22:14;;;;;;;3.20;2.40;;;;;;;18.97;86.94;96741.91;109579;1269;55436;-86
2023/06/07 09:24:45;;;;;;;5.20;2.70;;;;;;;19.00;86.61;96738.95;109566;1269;22554;-87
2023/06/07 09:27:28;;;;;;;3.60;2.40;;;;;;;19.06;86.51;96738.61;109555;1269;22504;-87
2023/06/07 09:30:07;;;;;;;3.60;2.70;;;;;;;19.12;86.53;96740.30;109535;1268;22510;-86
2023/06/07 09:32:38;;;;;;;;;;;;;;;19.20;86.33;96736.58;109549;1269;66114;-86
2023/06/07 09:35:17;;;;;;;2.40;2.20;;;;;;;19.19;85.39;96737.79;109550;1269;22516;-86
2023/06/07 09:37:52;;;;;;;4.30;2.70;;;;;;;19.20;85.17;96736.98;109547;1264;23219;-86
2023/06/07 09:40:25;;;;;;;2.70;2.40;;;;;;;19.20;84.89;96733.29;109561;1268;23843;-87
2023/06/07 09:43:00;;;;;;;3.10;2.80;;;;;;;19.23;85.09;96733.98;109454;1269;69437;-86
2023/06/07 09:45:32;;;;;;;3.10;2.60;;;;;;;19.26;84.81;96736.41;109582;1269;26395;-87
2023/06/07 09:48:07;;;;;;;4.60;2.50;;;;;;;19.34;85.32;96735.59;109572;1267;22506;-86
2023/06/07 09:50:38;;;;;;;3.10;2.50;;;;;;;19.43;85.09;96739.02;109509;1269;24212;-86
2023/06/07 09:53:09;;;;;;;2.80;2.30;;;;;;;19.45;84.58;96735.25;109514;1269;55722;-86
2023/06/07 09:55:41;;;;;;;3.40;2.70;;;;;;;19.42;83.94;96732.52;109540;1269;25390;-87
2023/06/07 09:58:22;;;;;;;3.20;2.70;;;;;;;19.40;84.29;96733.67;109559;1269;25433;-87
2023/06/07 10:00:55;;;;;;;3.60;2.60;;;;;;;19.47;84.48;96735.23;109556;1266;23950;-86
2023/06/07 10:03:27;;;;;;;2.60;2.40;;;;;;;19.55;84.64;96732.77;109498;1268;37520;-87
2023/06/07 10:05:59;;;;;;;7.50;2.80;;;;;;;19.60;84.18;96729.01;109558;1266;22533;-87
2023/06/07 10:08:31;;;;;;;3.20;2.50;;;;;;;19.53;83.05;96729.52;109547;1269;22492;-86
2023/06/07 10:11:03;;;;;;;4.40;3.20;;;;;;;19.51;83.66;96724.53;109586;1263;22543;-87
2023/06/07 10:13:34;;;;;;;3.00;2.50;;;;;;;19.61;84.00;96721.65;109549;1263;23832;-87
2023/06/07 10:16:10;;;;;;;2.60;2.40;;;;;;;19.69;83.69;96716.32;109571;1266;24209;-87
2023/06/07 10:18:43;;;;;;;3.60;2.40;;;;;;;19.77;83.79;96713.65;109592;1258;22508;-87
2023/06/07 10:21:19;;;;;;;4.00;2.20;;;;;;;19.85;83.36;96712.79;109530;1263;61300;-87
2023/06/07 10:23:57;;;;;;;3.70;2.30;;;;;;;19.88;82.77;96713.33;109541;1259;22511;-87
2023/06/07 10:26:32;;;;;;;5.20;2.60;;;;;;;19.95;82.67;96712.91;109555;1263;22519;-87
2023/06/07 10:29:12;;;;;;;3.50;2.20;;;;;;;20.01;82.34;96711.05;109615;1263;22712;-87
2023/06/07 10:31:48;;;;;;;4.30;2.60;;;;;;;20.08;82.47;96709.26;109530;1266;51064;-87
2023/06/07 10:34:21;;;;;;;2.80;2.40;;;;;;;20.12;81.68;96706.08;109550;1269;24212;-87
2023/06/07 10:36:53;;;;;;;2.50;2.30;;;;;;;20.18;81.31;96708.89;109554;1266;22551;-87
2023/06/07 10:39:25;;;;;;;2.50;2.30;;;;;;;20.25;80.95;96706.70;109567;1269;22619;-87
2023/06/07 10:41:57;;;;;;;3.10;2.30;;;;;;;20.35;81.14;96703.03;109551;1263;38689;-87
2023/06/07 10:44:29;;;;;;;4.90;2.90;;;;;;;20.50;81.30;96707.80;109607;1269;22627;-87
2023/06/07 10:47:31;;;;;;;4.30;2.70;;;;;;;20.59;80.00;96706.40;109553;1269;22532;-87
2023/06/07 10:50:03;;;;;;;4.10;2.40;;;;;;;20.53;79.34;96701.82;109528;1269;22535;-87
2023/06/07 10:52:34;;;;;;;2.40;2.20;;;;;;;20.64;79.63;96704.61;109517;1269;61034;-87
2023/06/07 10:55:27;;;;;;;2.80;2.40;;;;;;;20.80;79.50;96699.73;109544;1266;22536;-87
2023/06/07 10:57:59;;;;;;;2.80;2.40;;;;;;;20.95;79.26;96695.64;109534;1269;24194;-87
2023/06/07 11:00:33;;;;;;;2.80;2.50;;;;;;;21.04;78.65;96694.95;109541;1266;22532;-87
2023/06/07 11:03:41;;;;;;;3.50;3.10;;;;;;;21.04;77.85;96699.83;109532;1266;40748;-88
2023/06/07 11:06:14;;;;;;;8.30;3.60;;;;;;;21.05;78.25;96699.77;109497;1269;24187;-87
2023/06/07 11:08:46;;;;;;;7.30;3.70;;;;;;;20.96;77.91;96703.30;109580;1253;22507;-88
2023/06/07 11:11:53;;;;;;;4.00;3.30;;;;;;;20.89;77.87;96710.55;109507;1267;35580;-88
2023/06/07 11:14:25;;;;;;;3.80;3.30;;;;;;;20.77;77.94;96714.29;109523;1268;22514;-88
2023/06/07 11:16:56;;;;;;;4.20;3.80;;;;;;;20.72;78.60;96714.79;109512;1266;22520;-87
2023/06/07 11:19:57;;;;;;;4.30;3.90;;;;;;;20.69;78.73;96716.16;109533;1262;22543;-88
2023/06/07 11:22:31;;;;;;;4.20;3.70;;;;;;;20.60;78.55;96715.66;109455;1263;82326;-88
2023/06/07 11:25:15;;;;;;;3.80;3.30;;;;;;;20.54;78.50;96721.84;109547;1269;22600;-88
2023/06/07 11:27:55;;;;;;;4.20;3.70;;;;;;;20.49;78.60;96719.33;109563;1269;22588;-88
2023/06/07 11:30:27;;;;;;;5.20;3.20;;;;;;;20.42;78.35;96722.19;109573;1269;22490;-88
2023/06/07 11:32:59;;;;;;;4.00;3.60;;;;;;;20.38;78.26;96723.71;109477;1268;78363;-87
2023/06/07 11:35:33;;;;;;;4.50;3.80;;;;;;;20.35;78.46;96720.65;109520;1246;22520;-87
2023/06/07 11:38:06;;;;;;;4.10;3.60;;;;;;;20.39;78.59;96721.21;109546;1266;22508;-87
2023/06/07 11:40:38;;;;;;;5.10;4.10;;;;;;;20.43;78.45;96717.63;109506;1269;24017;-87
2023/06/07 11:43:13;;;;;;;4.30;3.50;;;;;;;20.48;78.20;96715.91;109517;1266;50528;-87
2023/06/07 11:45:45;;;;;;;4.80;3.80;;;;;;;20.52;78.29;96716.24;109550;1266;23193;-87
2023/06/07 11:48:20;;;;;;;4.30;3.90;;;;;;;20.67;79.14;96712.77;109285;1266;22518;-88
2023/06/07 11:50:52;;;;;;;4.00;3.60;;;;;;;20.83;78.52;96712.23;109536;1251;22508;-87